createdAt,value
2018-01-06T00:00:54.348Z,2.90
2018-01-06T00:03:25.239Z,3.17
2018-01-06T00:05:56.408Z,2.50
2018-01-06T00:08:27.656Z,2.93
2018-01-06T00:10:58.632Z,3.50
2018-01-06T00:13:30.376Z,2.93
2018-01-06T00:16:01.416Z,3.40
2018-01-06T00:18:33.640Z,2.80
2018-01-06T00:21:04.575Z,3.30
2018-01-06T00:23:35.988Z,3.27
2018-01-06T00:26:07.660Z,3.43
2018-01-06T00:28:38.611Z,3.60
2018-01-06T00:31:09.549Z,4.70
2018-01-06T00:33:40.538Z,5.07
2018-01-06T00:36:11.816Z,6.00
2018-01-06T00:38:42.729Z,5.40
2018-01-06T00:41:13.848Z,5.83
2018-01-06T00:43:45.891Z,5.77
2018-01-06T00:46:17.399Z,5.10
2018-01-06T00:48:49.283Z,6.20
2018-01-06T00:51:20.236Z,5.77
2018-01-06T00:53:51.507Z,7.20
2018-01-06T00:56:23.148Z,7.00
2018-01-06T00:58:54.051Z,7.17
2018-01-06T01:01:24.989Z,7.20
2018-01-06T01:03:55.884Z,6.50
2018-01-06T01:06:27.277Z,11.33
2018-01-06T01:08:58.952Z,8.27
2018-01-06T01:11:29.874Z,10.77
2018-01-06T01:14:00.787Z,11.67
2018-01-06T01:16:32.452Z,10.13
2018-01-06T01:19:03.901Z,10.57
2018-01-06T01:21:35.714Z,10.43
2018-01-06T01:24:06.768Z,11.40
2018-01-06T01:26:37.902Z,11.00
2018-01-06T01:29:08.872Z,10.37
2018-01-06T01:31:39.755Z,10.97
2018-01-06T01:34:10.685Z,10.80
2018-01-06T01:36:41.904Z,10.67
2018-01-06T01:39:13.586Z,12.77
2018-01-06T01:41:44.532Z,11.00
2018-01-06T01:44:15.435Z,10.97
2018-01-06T01:46:47.088Z,9.90
2018-01-06T01:49:18.734Z,11.67
2018-01-06T01:51:49.648Z,10.67
2018-01-06T01:54:20.541Z,10.80
2018-01-06T01:56:51.509Z,8.90
2018-01-06T01:59:22.368Z,8.67
2018-01-06T02:01:53.280Z,8.37
2018-01-06T02:04:24.209Z,6.87
2018-01-06T02:06:55.119Z,8.40
2018-01-06T02:09:26.788Z,7.27
2018-01-06T02:11:57.725Z,9.27
2018-01-06T02:14:28.619Z,6.83
2018-01-06T02:16:59.497Z,6.70
2018-01-06T02:19:30.453Z,7.60
2018-01-06T02:22:01.355Z,7.50
2018-01-06T02:24:32.988Z,8.13
2018-01-06T02:27:03.906Z,8.40
2018-01-06T02:29:34.791Z,8.70
2018-01-06T02:32:06.476Z,6.90
2018-01-06T02:34:38.102Z,8.20
2018-01-06T02:37:09.240Z,8.83
2018-01-06T02:39:40.906Z,7.90
2018-01-06T02:42:12.054Z,8.60
2018-01-06T02:44:42.935Z,8.53
2018-01-06T02:47:13.831Z,8.77
2018-01-06T02:49:44.776Z,8.60
2018-01-06T02:52:15.717Z,7.57
2018-01-06T02:54:46.840Z,8.97
2018-01-06T02:57:18.508Z,7.50
2018-01-06T02:59:49.393Z,8.03
2018-01-06T03:02:20.306Z,7.83
2018-01-06T03:04:51.211Z,8.43
2018-01-06T03:07:22.455Z,7.63
2018-01-06T03:09:54.140Z,7.07
2018-01-06T03:12:25.164Z,7.40
2018-01-06T03:14:56.048Z,6.67
2018-01-06T03:17:26.932Z,6.10
2018-01-06T03:19:57.815Z,6.80
2018-01-06T03:22:28.730Z,6.80
2018-01-06T03:25:00.717Z,7.37
2018-01-06T03:27:31.934Z,6.37
2018-01-06T03:30:02.853Z,6.87
2018-01-06T03:32:33.768Z,7.63
2018-01-06T03:35:13.474Z,6.80
2018-01-06T03:37:45.116Z,6.30
2018-01-06T03:40:16.133Z,7.13
2018-01-06T03:42:47.028Z,6.57
2018-01-06T03:45:18.020Z,7.77
2018-01-06T03:47:48.980Z,7.27
2018-01-06T03:50:20.305Z,7.37
2018-01-06T03:52:51.293Z,7.07
2018-01-06T03:55:22.592Z,7.57
2018-01-06T05:05:11.274Z,5.70
2018-01-06T05:07:43.329Z,5.97
2018-01-06T05:10:14.247Z,5.33
2018-01-06T05:12:46.313Z,5.23
2018-01-06T05:15:17.241Z,6.77
2018-01-06T05:17:48.177Z,5.87
2018-01-06T05:20:19.084Z,4.90
2018-01-06T05:22:50.781Z,5.60
2018-01-06T05:25:21.704Z,5.60
2018-01-06T05:27:52.591Z,5.57
2018-01-06T05:30:23.796Z,5.10
2018-01-06T05:32:54.728Z,5.60
2018-01-06T05:35:25.732Z,4.80
2018-01-06T05:37:56.671Z,5.80
2018-01-06T05:40:28.403Z,5.67
2018-01-06T05:42:59.638Z,5.40
2018-01-06T05:45:30.535Z,5.97
2018-01-06T05:48:01.679Z,5.10
2018-01-06T05:50:33.009Z,6.57
2018-01-06T05:53:04.717Z,7.30
2018-01-06T05:55:35.636Z,6.30
2018-01-06T05:58:06.592Z,5.17
2018-01-06T06:00:37.857Z,5.17
2018-01-06T06:03:08.801Z,5.60
2018-01-06T06:05:39.932Z,6.03
2018-01-06T06:08:10.860Z,6.60
2018-01-06T06:10:41.761Z,5.93
2018-01-06T06:13:14.190Z,6.47
2018-01-06T06:15:45.208Z,6.60
2018-01-06T06:18:16.960Z,7.20
2018-01-06T06:20:47.928Z,8.10
2018-01-06T06:23:18.829Z,7.77
2018-01-06T06:25:49.776Z,7.90
2018-01-06T06:28:20.723Z,7.90
2018-01-06T06:30:51.988Z,7.47
2018-01-06T06:33:23.433Z,7.10
2018-01-06T06:35:54.656Z,6.37
2018-01-06T06:38:25.556Z,7.27
2018-01-06T06:40:57.326Z,7.50
2018-01-06T06:43:28.564Z,6.80
2018-01-06T06:46:00.436Z,5.93
2018-01-06T06:48:31.691Z,6.00
2018-01-06T06:51:02.632Z,5.50
2018-01-06T06:53:33.598Z,6.30
2018-01-06T06:56:04.504Z,5.27
2018-01-06T06:58:36.288Z,6.13
2018-01-06T07:01:07.216Z,4.57
2018-01-06T07:03:38.176Z,5.70
2018-01-06T07:06:10.708Z,5.33
2018-01-06T07:08:42.508Z,5.90
2018-01-06T07:11:13.464Z,6.23
2018-01-06T07:13:45.192Z,6.30
2018-01-06T07:16:16.108Z,5.80
2018-01-06T07:18:47.043Z,6.13
2018-01-06T07:21:17.940Z,5.87
2018-01-06T07:23:49.036Z,6.27
2018-01-06T07:26:19.976Z,5.53
2018-01-06T07:28:50.953Z,5.97
2018-01-06T07:31:22.284Z,6.00
2018-01-06T07:33:53.208Z,6.17
2018-01-06T07:36:24.377Z,5.50
2018-01-06T07:38:55.276Z,4.87
2018-01-06T07:41:26.202Z,5.40
2018-01-06T07:43:57.140Z,6.03
2018-01-06T07:46:28.041Z,6.30
2018-01-06T07:48:59.024Z,5.50
2018-01-06T07:51:29.935Z,5.60
2018-01-06T07:54:01.658Z,6.37
2018-01-06T07:56:32.600Z,6.20
2018-01-06T07:59:03.540Z,6.60
2018-01-06T08:01:34.956Z,6.30
2018-01-06T08:04:05.877Z,5.80
2018-01-06T08:06:37.224Z,4.93
2018-01-06T08:09:08.165Z,5.10
2018-01-06T08:11:39.088Z,5.57
2018-01-06T08:14:10.760Z,4.90
2018-01-06T08:16:41.664Z,5.10
2018-01-06T08:19:12.856Z,5.20
2018-01-06T08:21:43.921Z,5.37
2018-01-06T08:24:15.561Z,5.10
2018-01-06T08:26:46.496Z,4.80
2018-01-06T08:29:17.400Z,5.67
2018-01-06T08:31:49.356Z,4.97
2018-01-06T08:34:20.676Z,5.33
2018-01-06T08:36:51.745Z,5.30
2018-01-06T08:39:23.436Z,5.10
2018-01-06T08:41:54.342Z,5.13
2018-01-06T08:44:26.048Z,5.33
2018-01-06T08:46:57.653Z,6.07
2018-01-06T08:49:29.669Z,5.80
2018-01-06T08:52:00.593Z,5.27
2018-01-06T08:54:31.559Z,5.47
2018-01-06T08:57:02.492Z,5.73
2018-01-06T08:59:33.444Z,5.90
2018-01-06T09:02:04.844Z,5.03
2018-01-06T09:04:35.991Z,4.67
2018-01-06T09:07:07.210Z,5.60
2018-01-06T09:09:38.925Z,4.40
2018-01-06T09:12:09.844Z,5.20
2018-01-06T09:14:40.792Z,5.20
2018-01-06T09:17:11.704Z,5.60
2018-01-06T09:19:42.932Z,5.40
2018-01-06T09:22:14.591Z,5.57
2018-01-06T09:24:46.258Z,5.97
2018-01-06T09:27:17.172Z,5.50
2018-01-06T09:29:48.827Z,5.30
2018-01-06T09:32:20.518Z,5.93
2018-01-06T09:34:51.464Z,5.50
2018-01-06T09:37:22.799Z,5.37
2018-01-06T09:39:53.719Z,5.50
2018-01-06T09:42:25.427Z,5.97
2018-01-06T09:44:56.327Z,6.43
2018-01-06T09:47:27.270Z,6.13
2018-01-06T09:49:58.406Z,4.90
2018-01-06T09:52:29.411Z,5.60
2018-01-06T09:55:00.339Z,5.10
2018-01-06T09:57:31.228Z,5.60
2018-01-06T10:00:02.160Z,6.03
2018-01-06T10:02:34.122Z,6.80
2018-01-06T10:05:05.009Z,6.70
2018-01-06T10:07:36.297Z,6.03
2018-01-06T10:10:07.198Z,6.20
2018-01-06T10:12:38.123Z,7.07
2018-01-06T10:15:09.031Z,5.80
2018-01-06T10:17:39.951Z,5.63
2018-01-06T10:20:11.203Z,6.30
2018-01-06T10:22:42.127Z,6.57
2018-01-06T10:25:13.763Z,6.43
2018-01-06T10:27:44.680Z,6.20
2018-01-06T10:30:15.565Z,6.90
2018-01-06T10:32:47.527Z,5.83
2018-01-06T10:35:18.427Z,6.37
2018-01-06T10:37:49.666Z,6.17
2018-01-06T10:40:20.642Z,6.67
2018-01-06T10:42:52.327Z,6.43
2018-01-06T10:45:24.025Z,6.77
2018-01-06T10:47:54.947Z,6.70
2018-01-06T10:50:26.234Z,6.07
2018-01-06T10:52:58.106Z,6.10
2018-01-06T10:55:29.778Z,5.67
2018-01-06T10:58:00.741Z,8.20
2018-01-06T11:00:36.612Z,6.70
2018-01-06T11:03:07.695Z,7.50
2018-01-06T11:05:39.362Z,7.30
2018-01-06T11:08:10.519Z,8.10
2018-01-06T11:10:41.403Z,8.20
2018-01-06T11:13:13.558Z,8.30
2018-01-06T11:15:44.483Z,7.30
2018-01-06T11:18:15.455Z,7.43
2018-01-06T11:20:46.722Z,7.67
2018-01-06T11:23:18.391Z,8.20
2018-01-06T11:25:49.323Z,7.70
2018-01-06T11:28:20.218Z,7.07
2018-01-06T11:30:51.149Z,7.30
2018-01-06T11:33:22.856Z,7.97
2018-01-06T11:35:55.038Z,7.50
2018-01-06T11:38:26.519Z,7.47
2018-01-06T11:40:57.422Z,7.50
2018-01-06T11:43:28.498Z,7.63
2018-01-06T11:45:59.422Z,8.17
2018-01-06T11:48:30.314Z,7.50
2018-01-06T11:51:02.019Z,8.40
2018-01-06T11:53:32.921Z,7.60
2018-01-06T11:56:04.814Z,8.07
2018-01-06T11:58:35.727Z,8.47
2018-01-06T12:01:06.660Z,8.70
2018-01-06T12:03:38.328Z,7.93
2018-01-06T12:06:09.282Z,8.90
2018-01-06T12:08:41.172Z,9.93
2018-01-06T12:11:12.148Z,9.87
2018-01-06T12:13:43.824Z,10.63
2018-01-06T12:16:14.778Z,11.50
2018-01-06T12:18:45.724Z,10.97
2018-01-06T12:21:17.663Z,10.70
2018-01-06T12:23:48.532Z,10.40
2018-01-06T12:26:19.639Z,11.53
2018-01-06T12:28:50.581Z,10.90
2018-01-06T12:31:21.507Z,10.93
2018-01-06T12:33:52.403Z,10.70
2018-01-06T12:36:23.348Z,11.50
2018-01-06T12:38:54.677Z,11.03
2018-01-06T12:41:25.623Z,11.70
2018-01-06T12:43:56.506Z,12.20
2018-01-06T12:46:27.388Z,13.27
2018-01-06T12:48:58.315Z,12.53
2018-01-06T12:51:29.610Z,13.93
2018-01-06T12:54:01.398Z,13.43
2018-01-06T12:56:33.031Z,13.83
2018-01-06T12:59:05.014Z,15.03
2018-01-06T13:01:37.595Z,15.40
2018-01-06T13:04:08.542Z,15.40
2018-01-06T13:06:39.459Z,15.60
2018-01-06T13:09:10.858Z,15.53
2018-01-06T13:11:41.767Z,17.97
2018-01-06T13:14:12.692Z,17.53
2018-01-06T13:16:43.620Z,19.60
2018-01-06T13:19:15.184Z,17.43
2018-01-06T13:21:46.460Z,18.40
2018-01-06T13:24:17.613Z,17.50
2018-01-06T13:26:48.519Z,18.43
2018-01-06T13:29:19.636Z,19.03
2018-01-06T13:31:51.325Z,20.67
2018-01-06T13:34:22.301Z,18.30
2018-01-06T13:36:53.330Z,19.17
2018-01-06T13:39:24.476Z,19.47
2018-01-06T13:41:55.416Z,20.10
2018-01-06T13:44:26.308Z,17.83
2018-01-06T13:46:57.264Z,18.40
2018-01-06T13:49:28.179Z,16.93
2018-01-06T13:51:59.176Z,17.67
2018-01-06T13:54:30.131Z,18.50
2018-01-06T13:57:01.855Z,18.57
2018-01-06T13:59:32.756Z,19.93
2018-01-06T14:02:03.705Z,20.00
2018-01-06T14:04:34.706Z,19.23
2018-01-06T14:07:06.404Z,19.13
2018-01-06T14:09:37.704Z,18.73
2018-01-06T14:12:08.596Z,19.27
2018-01-06T14:14:39.516Z,19.33
2018-01-06T14:17:14.912Z,19.50
2018-01-06T14:19:45.896Z,19.63
2018-01-06T14:22:17.052Z,19.53
2018-01-06T14:24:48.165Z,20.50
2018-01-06T14:27:20.236Z,19.63
2018-01-06T14:29:51.528Z,19.47
2018-01-06T14:32:22.435Z,19.10
2018-01-06T15:05:11.979Z,15.33
2018-01-06T15:07:42.615Z,12.77
2018-01-06T15:10:12.461Z,13.10
2018-01-06T15:12:42.199Z,13.33
2018-01-06T15:15:12.147Z,14.10
2018-01-06T15:17:42.686Z,14.67
2018-01-06T15:20:12.735Z,13.77
2018-01-06T15:22:43.968Z,13.27
2018-01-06T15:25:13.720Z,13.73
2018-01-06T15:27:43.473Z,11.50
2018-01-06T15:30:13.330Z,12.93
2018-01-06T15:32:44.684Z,12.67
2018-01-06T15:35:14.750Z,13.40
2018-01-06T15:37:44.603Z,11.63
2018-01-06T15:40:14.519Z,12.27
2018-01-06T15:42:44.269Z,13.07
2018-01-06T15:45:14.962Z,13.10
2018-01-06T15:47:44.730Z,12.93
2018-01-06T15:50:15.422Z,13.40
2018-01-06T15:52:45.206Z,13.90
2018-01-06T15:55:14.983Z,13.50
2018-01-06T15:57:44.848Z,13.53
2018-01-06T16:00:14.847Z,13.57
2018-01-06T16:02:45.364Z,12.90
2018-01-06T16:05:15.159Z,13.20
2018-01-06T16:07:44.989Z,13.20
2018-01-06T16:10:15.407Z,13.40
2018-01-06T16:12:45.243Z,14.50
2018-01-06T16:15:15.369Z,13.03
2018-01-06T16:17:45.179Z,13.20
2018-01-06T16:20:14.917Z,12.90
2018-01-06T16:22:44.647Z,14.00
2018-01-06T16:25:15.203Z,13.80
2018-01-06T16:27:44.970Z,13.40
2018-01-06T16:30:15.848Z,13.87
2018-01-06T16:32:45.795Z,14.40
2018-01-06T16:35:17.336Z,13.63
2018-01-06T16:37:47.097Z,13.93
2018-01-06T16:40:16.915Z,14.10
2018-01-06T16:42:47.440Z,14.10
2018-01-06T16:45:17.940Z,13.40
2018-01-06T16:47:47.725Z,13.63
2018-01-06T16:50:17.474Z,13.50
2018-01-06T16:52:47.227Z,13.60
2018-01-06T16:55:16.975Z,14.70
2018-01-06T16:57:47.666Z,14.57
2018-01-06T17:00:17.932Z,15.43
2018-01-06T17:02:47.861Z,15.77
2018-01-06T17:05:17.920Z,16.33
2018-01-06T17:07:47.810Z,15.80
2018-01-06T17:10:18.559Z,16.90
2018-01-06T17:12:48.377Z,15.00
2018-01-06T17:15:18.111Z,15.83
2018-01-06T17:17:47.884Z,18.80
2018-01-06T17:20:18.367Z,18.40
2018-01-06T17:22:48.095Z,19.33
2018-01-06T17:25:17.852Z,22.57
2018-01-06T17:27:47.595Z,23.70
2018-01-06T17:30:18.811Z,20.93
2018-01-06T17:32:48.599Z,20.97
2018-01-06T17:35:19.579Z,21.17
2018-01-06T17:37:49.608Z,20.13
2018-01-06T17:40:19.817Z,18.90
2018-01-06T17:42:50.185Z,19.67
2018-01-06T17:45:20.891Z,20.07
2018-01-06T17:47:50.671Z,18.03
2018-01-06T17:50:20.391Z,20.37
2018-01-06T17:52:50.102Z,20.00
2018-01-06T17:55:20.191Z,21.40
2018-01-06T17:57:49.931Z,20.63
2018-01-06T18:00:19.711Z,18.90
2018-01-06T18:02:49.464Z,20.07
2018-01-06T18:05:19.271Z,18.73
2018-01-06T18:07:49.074Z,20.70
2018-01-06T18:10:18.828Z,19.37
2018-01-06T18:12:48.545Z,20.00
2018-01-06T18:15:18.307Z,18.60
2018-01-06T18:17:48.075Z,18.60
2018-01-06T18:20:18.633Z,18.50
2018-01-06T18:22:49.163Z,17.90
2018-01-06T18:25:18.983Z,18.13
2018-01-06T18:27:48.713Z,17.17
2018-01-06T18:30:18.480Z,16.30
2018-01-06T18:32:48.258Z,18.77
2018-01-06T18:35:18.241Z,16.90
2018-01-06T18:37:47.955Z,17.97
2018-01-06T18:40:17.743Z,19.20
2018-01-06T18:42:47.478Z,19.57
2018-01-06T18:45:17.247Z,20.83
2018-01-06T18:47:46.995Z,21.33
2018-01-06T18:50:16.744Z,19.17
2018-01-06T18:52:46.497Z,20.27
2018-01-06T18:55:16.246Z,16.90
2018-01-06T18:57:46.310Z,15.33
2018-01-06T19:00:16.087Z,15.10
2018-01-06T19:02:45.854Z,15.60
2018-01-06T19:05:15.716Z,14.70
2018-01-06T19:07:45.491Z,15.80
2018-01-06T19:10:15.231Z,15.67
2018-01-06T19:12:45.743Z,14.67
2018-01-06T19:15:15.491Z,16.07
2018-01-06T19:17:46.048Z,16.27
2018-01-06T19:20:15.787Z,16.47
2018-01-06T19:22:45.527Z,17.10
2018-01-06T19:25:15.328Z,15.03
2018-01-06T19:27:45.077Z,17.30
2018-01-06T19:30:14.856Z,15.90
2018-01-06T19:32:44.614Z,15.47
2018-01-06T19:35:14.433Z,16.27
2018-01-06T19:37:44.212Z,14.70
2018-01-06T19:40:14.767Z,15.97
2018-01-06T19:42:44.575Z,14.90
2018-01-06T19:45:14.467Z,15.57
2018-01-06T19:47:44.205Z,15.40
2018-01-06T19:50:13.963Z,15.97
2018-01-06T19:52:43.804Z,15.10
2018-01-06T19:55:14.279Z,15.43
2018-01-06T19:57:44.023Z,15.77
2018-01-06T20:00:13.760Z,13.40
2018-01-06T20:02:43.499Z,15.07
2018-01-06T20:05:13.274Z,16.60
2018-01-06T20:07:43.063Z,14.63
2018-01-06T20:10:12.832Z,14.10
2018-01-06T20:12:42.584Z,15.17
2018-01-06T20:15:12.319Z,13.63
2018-01-06T20:17:42.068Z,14.10
2018-01-06T20:20:11.915Z,14.33
2018-01-06T20:22:41.671Z,12.57
2018-01-06T20:25:11.440Z,14.17
2018-01-06T20:27:41.187Z,14.07
2018-01-06T20:30:10.918Z,12.53
2018-01-06T20:32:40.667Z,13.07
2018-01-06T20:35:10.439Z,13.20
2018-01-06T20:37:40.197Z,12.17
2018-01-06T20:40:10.756Z,12.23
2018-01-06T20:42:40.506Z,13.60
2018-01-06T20:45:10.271Z,14.73
2018-01-06T20:47:40.055Z,13.27
2018-01-06T20:50:10.579Z,14.23
2018-01-06T20:52:40.318Z,13.67
2018-01-06T20:55:10.059Z,16.10
2018-01-06T20:57:41.423Z,14.40
2018-01-06T21:00:11.167Z,15.67
2018-01-06T21:02:41.639Z,14.77
2018-01-06T21:05:11.382Z,14.67
2018-01-06T21:07:41.104Z,14.77
2018-01-06T21:10:11.511Z,14.10
2018-01-06T21:12:41.293Z,14.40
2018-01-06T21:15:11.047Z,15.67
2018-01-06T21:17:40.803Z,15.30
2018-01-06T21:20:10.550Z,15.40
2018-01-06T21:22:40.296Z,16.80
2018-01-06T21:25:10.090Z,17.27
2018-01-06T21:27:39.813Z,18.13
2018-01-06T21:30:10.351Z,15.87
2018-01-06T21:32:40.877Z,17.63
2018-01-06T21:35:11.484Z,18.20
2018-01-06T21:37:41.232Z,20.00
2018-01-06T21:40:10.951Z,21.97
2018-01-06T21:42:40.715Z,21.23
2018-01-06T21:45:11.511Z,23.30
2018-01-06T21:47:42.091Z,22.80
2018-01-06T21:50:11.811Z,24.30
2018-01-06T21:52:42.320Z,22.50
2018-01-06T21:55:12.072Z,23.67
2018-01-06T21:57:41.887Z,22.27
2018-01-06T22:00:11.660Z,25.30
2018-01-06T22:02:42.728Z,25.77
2018-01-06T22:05:13.224Z,23.40
2018-01-06T22:07:42.995Z,25.47
2018-01-06T22:10:12.717Z,19.27
2018-01-06T22:12:42.460Z,17.67
2018-01-06T22:15:12.308Z,16.30
2018-01-06T22:17:42.063Z,16.07
2018-01-06T22:20:11.782Z,15.90
2018-01-06T22:22:41.551Z,14.87
2018-01-06T22:25:11.286Z,14.27
2018-01-06T22:27:41.044Z,13.70
2018-01-06T22:30:11.554Z,13.87
2018-01-06T22:32:42.010Z,14.97
2018-01-06T22:35:11.839Z,14.73
2018-01-06T22:37:41.583Z,15.30
2018-01-06T22:40:11.371Z,18.00
2018-01-06T22:42:41.086Z,16.90
2018-01-06T22:45:10.827Z,14.70
2018-01-06T22:47:40.551Z,15.30
2018-01-06T22:50:11.102Z,14.20
2018-01-06T22:52:40.854Z,15.57
2018-01-06T22:55:10.614Z,15.47
2018-01-06T22:57:41.092Z,15.67
2018-01-06T23:00:10.831Z,16.40
2018-01-06T23:02:40.605Z,16.13
2018-01-06T23:05:10.350Z,15.70
2018-01-06T23:07:40.081Z,17.70
2018-01-06T23:10:10.595Z,16.77
2018-01-06T23:12:40.358Z,16.70
2018-01-06T23:15:10.110Z,16.80
2018-01-06T23:17:40.366Z,18.03
2018-01-06T23:20:10.124Z,17.40
2018-01-06T23:22:39.906Z,17.20
2018-01-06T23:25:09.775Z,17.70
2018-01-06T23:27:39.488Z,18.80
2018-01-06T23:30:10.032Z,18.00
2018-01-06T23:32:40.810Z,19.80
2018-01-06T23:35:10.550Z,20.00
2018-01-06T23:37:40.267Z,18.50
2018-01-06T23:40:10.007Z,17.10
2018-01-06T23:42:39.770Z,18.50
2018-01-06T23:45:09.532Z,17.90
2018-01-06T23:47:39.270Z,19.30
2018-01-06T23:50:09.059Z,17.50
2018-01-06T23:52:38.786Z,18.00
2018-01-06T23:55:08.549Z,17.87
2018-01-06T23:57:38.410Z,18.27
